createdAt,value
2019-04-09T01:41:10.811Z,29.87
2019-04-09T01:51:47.935Z,33.17
2019-04-09T03:12:00.666Z,33.67
2019-04-09T07:23:26.236Z,21.23
2019-04-09T07:30:05.519Z,23.10
2019-04-09T07:41:48.365Z,22.27
2019-04-09T10:07:56.182Z,22.70
2019-04-09T10:26:44.292Z,23.17
2019-04-09T10:56:31.214Z,22.67
2019-04-09T12:38:59.920Z,18.87
2019-04-09T12:56:38.131Z,19.07
2019-04-09T13:26:04.407Z,17.20
2019-04-09T14:03:26.414Z,14.00
2019-04-09T14:09:09.874Z,17.13
2019-04-09T14:27:29.904Z,18.87
2019-04-09T15:02:13.760Z,17.17
2019-04-09T15:37:46.536Z,15.73
2019-04-09T15:43:42.855Z,16.87
2019-04-09T15:55:13.969Z,16.97
2019-04-09T16:00:45.230Z,14.87
2019-04-09T20:32:02.222Z,26.23
2019-04-09T20:36:47.325Z,26.50
2019-04-09T20:41:32.085Z,30.03
2019-04-09T20:46:17.827Z,28.43
2019-04-09T20:51:02.663Z,31.20
2019-04-09T20:55:48.578Z,30.57
2019-04-09T21:01:04.964Z,27.60
2019-04-09T21:05:57.127Z,31.50
2019-04-09T21:10:39.111Z,29.17
2019-04-09T21:15:24.256Z,30.77
2019-04-09T21:20:09.570Z,31.57
2019-04-09T21:24:57.232Z,30.63
2019-04-09T21:29:43.860Z,30.77
2019-04-09T21:34:28.860Z,30.57
2019-04-09T21:39:15.008Z,31.40
2019-04-09T21:44:00.510Z,28.33
2019-04-09T21:48:45.926Z,30.53
2019-04-09T21:53:31.994Z,31.20
2019-04-09T21:58:16.565Z,32.70
2019-04-09T22:03:01.576Z,33.70
2019-04-09T22:07:47.280Z,34.87
2019-04-09T22:12:33.775Z,33.03
2019-04-09T22:17:19.439Z,34.50
2019-04-09T22:22:05.076Z,33.97
2019-04-09T22:26:49.859Z,32.17
2019-04-09T22:31:35.989Z,31.90
2019-04-09T22:36:34.839Z,33.23
2019-04-09T22:41:11.799Z,34.97
2019-04-09T22:45:57.865Z,29.60
2019-04-09T22:50:42.675Z,31.83
2019-04-09T22:55:27.927Z,35.37
2019-04-09T23:00:32.647Z,34.93
2019-04-09T23:05:31.199Z,34.60
2019-04-09T23:10:41.854Z,31.17
2019-04-09T23:15:39.338Z,35.57
2019-04-09T23:20:24.275Z,37.50
2019-04-09T23:25:08.781Z,33.93
2019-04-09T23:29:53.575Z,38.33
2019-04-09T23:34:39.733Z,35.80
2019-04-09T23:39:26.559Z,34.00
2019-04-09T23:44:11.750Z,35.67
2019-04-09T23:48:56.918Z,33.60
2019-04-09T23:53:41.830Z,35.03
2019-04-09T23:58:27.100Z,39.07
